sensor_id;sensor_type;location;lat;lon;timestamp;temperature;humidity
10492;DHT22;5293;51.464;-2.566;2023-10-31T00:01:28;11.30;99.90
10492;DHT22;5293;51.464;-2.566;2023-10-31T00:03:54;11.30;99.90
10492;DHT22;5293;51.464;-2.566;2023-10-31T00:06:19;11.40;99.90
10492;DHT22;5293;51.464;-2.566;2023-10-31T00:08:45;11.40;99.90
10492;DHT22;5293;51.464;-2.566;2023-10-31T00:11:11;11.30;99.90
10492;DHT22;5293;51.464;-2.566;2023-10-31T00:13:37;11.30;99.90
10492;DHT22;5293;51.464;-2.566;2023-10-31T00:16:03;11.30;99.90
10492;DHT22;5293;51.464;-2.566;2023-10-31T00:18:29;11.30;99.90
10492;DHT22;5293;51.464;-2.566;2023-10-31T00:20:54;11.30;99.90
10492;DHT22;5293;51.464;-2.566;2023-10-31T00:23:22;11.30;99.90
10492;DHT22;5293;51.464;-2.566;2023-10-31T00:25:48;11.30;99.90
10492;DHT22;5293;51.464;-2.566;2023-10-31T00:28:14;11.30;99.90
10492;DHT22;5293;51.464;-2.566;2023-10-31T00:30:39;11.30;99.90
10492;DHT22;5293;51.464;-2.566;2023-10-31T00:33:05;11.40;99.90
10492;DHT22;5293;51.464;-2.566;2023-10-31T00:35:31;11.40;99.90
10492;DHT22;5293;51.464;-2.566;2023-10-31T00:37:56;11.40;99.90
10492;DHT22;5293;51.464;-2.566;2023-10-31T00:40:22;11.50;99.90
10492;DHT22;5293;51.464;-2.566;2023-10-31T00:42:48;11.50;99.90
10492;DHT22;5293;51.464;-2.566;2023-10-31T00:45:14;11.50;99.90
10492;DHT22;5293;51.464;-2.566;2023-10-31T00:47:39;11.50;99.90
10492;DHT22;5293;51.464;-2.566;2023-10-31T00:50:05;11.50;99.90
10492;DHT22;5293;51.464;-2.566;2023-10-31T00:52:31;11.50;99.90
10492;DHT22;5293;51.464;-2.566;2023-10-31T00:54:57;11.50;99.90
10492;DHT22;5293;51.464;-2.566;2023-10-31T00:57:23;11.60;99.90
10492;DHT22;5293;51.464;-2.566;2023-10-31T00:59:48;11.60;99.90
10492;DHT22;5293;51.464;-2.566;2023-10-31T01:02:14;11.60;99.90
10492;DHT22;5293;51.464;-2.566;2023-10-31T01:04:39;11.60;99.90
10492;DHT22;5293;51.464;-2.566;2023-10-31T01:07:06;11.60;99.90
10492;DHT22;5293;51.464;-2.566;2023-10-31T01:09:31;11.60;99.90
10492;DHT22;5293;51.464;-2.566;2023-10-31T01:11:57;11.70;99.90
10492;DHT22;5293;51.464;-2.566;2023-10-31T01:14:22;11.70;99.90
10492;DHT22;5293;51.464;-2.566;2023-10-31T01:16:48;11.70;99.90
10492;DHT22;5293;51.464;-2.566;2023-10-31T01:19:14;11.70;99.90
10492;DHT22;5293;51.464;-2.566;2023-10-31T01:21:40;11.70;99.90
10492;DHT22;5293;51.464;-2.566;2023-10-31T01:24:06;11.70;99.90
10492;DHT22;5293;51.464;-2.566;2023-10-31T01:26:31;11.70;99.90
10492;DHT22;5293;51.464;-2.566;2023-10-31T01:28:57;11.70;99.90
10492;DHT22;5293;51.464;-2.566;2023-10-31T01:31:23;11.70;99.90
10492;DHT22;5293;51.464;-2.566;2023-10-31T01:33:49;11.70;99.90
10492;DHT22;5293;51.464;-2.566;2023-10-31T01:36:15;11.70;99.90
10492;DHT22;5293;51.464;-2.566;2023-10-31T01:38:40;11.70;99.90
10492;DHT22;5293;51.464;-2.566;2023-10-31T01:41:06;11.70;99.90
10492;DHT22;5293;51.464;-2.566;2023-10-31T01:43:36;11.70;99.90
10492;DHT22;5293;51.464;-2.566;2023-10-31T01:46:03;11.70;99.90
10492;DHT22;5293;51.464;-2.566;2023-10-31T01:48:31;11.70;99.90
10492;DHT22;5293;51.464;-2.566;2023-10-31T01:50:59;11.70;99.90
10492;DHT22;5293;51.464;-2.566;2023-10-31T01:53:25;11.70;99.90
10492;DHT22;5293;51.464;-2.566;2023-10-31T01:55:54;11.60;99.90
10492;DHT22;5293;51.464;-2.566;2023-10-31T01:58:23;11.70;99.90
10492;DHT22;5293;51.464;-2.566;2023-10-31T02:00:51;11.70;99.90
10492;DHT22;5293;51.464;-2.566;2023-10-31T02:03:17;11.70;99.90
10492;DHT22;5293;51.464;-2.566;2023-10-31T02:05:43;11.70;99.90
10492;DHT22;5293;51.464;-2.566;2023-10-31T02:08:08;11.70;99.90
10492;DHT22;5293;51.464;-2.566;2023-10-31T02:10:35;11.60;99.90
10492;DHT22;5293;51.464;-2.566;2023-10-31T02:13:11;11.70;99.90
10492;DHT22;5293;51.464;-2.566;2023-10-31T02:15:37;11.70;99.90
10492;DHT22;5293;51.464;-2.566;2023-10-31T02:18:03;11.80;99.90
10492;DHT22;5293;51.464;-2.566;2023-10-31T02:20:28;11.70;99.90
10492;DHT22;5293;51.464;-2.566;2023-10-31T02:22:54;11.70;99.90
10492;DHT22;5293;51.464;-2.566;2023-10-31T02:25:20;11.60;99.90
10492;DHT22;5293;51.464;-2.566;2023-10-31T02:27:46;11.70;99.90
10492;DHT22;5293;51.464;-2.566;2023-10-31T02:30:12;11.70;99.90
10492;DHT22;5293;51.464;-2.566;2023-10-31T02:32:38;11.70;99.90
10492;DHT22;5293;51.464;-2.566;2023-10-31T02:35:04;11.70;99.90
10492;DHT22;5293;51.464;-2.566;2023-10-31T02:37:29;11.70;99.90
10492;DHT22;5293;51.464;-2.566;2023-10-31T02:39:55;11.70;99.90
10492;DHT22;5293;51.464;-2.566;2023-10-31T02:42:21;11.70;99.90
10492;DHT22;5293;51.464;-2.566;2023-10-31T02:44:46;11.70;99.90
10492;DHT22;5293;51.464;-2.566;2023-10-31T02:47:12;11.70;99.90
10492;DHT22;5293;51.464;-2.566;2023-10-31T02:49:37;11.70;99.90
10492;DHT22;5293;51.464;-2.566;2023-10-31T02:52:03;11.70;99.90
10492;DHT22;5293;51.464;-2.566;2023-10-31T02:54:29;11.60;99.90
10492;DHT22;5293;51.464;-2.566;2023-10-31T02:56:54;11.60;99.90
10492;DHT22;5293;51.464;-2.566;2023-10-31T02:59:20;11.60;99.90
10492;DHT22;5293;51.464;-2.566;2023-10-31T03:01:46;11.60;99.90
10492;DHT22;5293;51.464;-2.566;2023-10-31T03:04:11;11.60;99.90
10492;DHT22;5293;51.464;-2.566;2023-10-31T03:06:37;11.60;99.90
10492;DHT22;5293;51.464;-2.566;2023-10-31T03:09:03;11.60;99.90
10492;DHT22;5293;51.464;-2.566;2023-10-31T03:11:29;11.70;99.90
10492;DHT22;5293;51.464;-2.566;2023-10-31T03:13:55;11.70;99.90
10492;DHT22;5293;51.464;-2.566;2023-10-31T03:16:22;11.70;99.90
10492;DHT22;5293;51.464;-2.566;2023-10-31T03:18:48;11.80;99.90
10492;DHT22;5293;51.464;-2.566;2023-10-31T03:21:14;11.80;99.90
10492;DHT22;5293;51.464;-2.566;2023-10-31T03:23:46;11.90;99.90
10492;DHT22;5293;51.464;-2.566;2023-10-31T03:26:12;11.90;99.90
10492;DHT22;5293;51.464;-2.566;2023-10-31T03:28:37;11.90;99.90
10492;DHT22;5293;51.464;-2.566;2023-10-31T03:31:03;11.90;99.90
10492;DHT22;5293;51.464;-2.566;2023-10-31T03:33:29;11.80;99.90
10492;DHT22;5293;51.464;-2.566;2023-10-31T03:35:54;11.80;99.90
10492;DHT22;5293;51.464;-2.566;2023-10-31T03:38:20;11.70;99.90
10492;DHT22;5293;51.464;-2.566;2023-10-31T03:40:46;11.70;99.90
10492;DHT22;5293;51.464;-2.566;2023-10-31T03:43:12;11.60;99.90
10492;DHT22;5293;51.464;-2.566;2023-10-31T03:45:37;11.50;99.90
10492;DHT22;5293;51.464;-2.566;2023-10-31T03:48:03;11.50;99.90
10492;DHT22;5293;51.464;-2.566;2023-10-31T03:50:29;11.50;99.90
10492;DHT22;5293;51.464;-2.566;2023-10-31T03:52:55;11.40;99.90
10492;DHT22;5293;51.464;-2.566;2023-10-31T03:55:20;11.40;99.90
10492;DHT22;5293;51.464;-2.566;2023-10-31T03:57:46;11.40;99.90
10492;DHT22;5293;51.464;-2.566;2023-10-31T04:00:12;11.30;99.90
10492;DHT22;5293;51.464;-2.566;2023-10-31T04:02:39;11.30;99.90
10492;DHT22;5293;51.464;-2.566;2023-10-31T04:05:05;11.20;99.90
10492;DHT22;5293;51.464;-2.566;2023-10-31T04:07:32;11.20;99.90
10492;DHT22;5293;51.464;-2.566;2023-10-31T04:09:57;11.20;99.90
10492;DHT22;5293;51.464;-2.566;2023-10-31T04:12:23;11.20;99.90
10492;DHT22;5293;51.464;-2.566;2023-10-31T04:14:49;11.10;99.90
10492;DHT22;5293;51.464;-2.566;2023-10-31T04:17:14;11.10;99.90
10492;DHT22;5293;51.464;-2.566;2023-10-31T04:19:40;11.00;99.90
10492;DHT22;5293;51.464;-2.566;2023-10-31T04:22:06;11.00;99.90
10492;DHT22;5293;51.464;-2.566;2023-10-31T04:24:31;11.00;99.90
10492;DHT22;5293;51.464;-2.566;2023-10-31T04:26:57;11.00;99.90
10492;DHT22;5293;51.464;-2.566;2023-10-31T04:29:23;10.90;99.90
10492;DHT22;5293;51.464;-2.566;2023-10-31T04:31:48;10.90;99.90
10492;DHT22;5293;51.464;-2.566;2023-10-31T04:34:14;10.90;99.90
10492;DHT22;5293;51.464;-2.566;2023-10-31T04:36:40;10.90;99.90
10492;DHT22;5293;51.464;-2.566;2023-10-31T04:39:06;10.90;99.90
10492;DHT22;5293;51.464;-2.566;2023-10-31T04:41:31;10.90;99.90
10492;DHT22;5293;51.464;-2.566;2023-10-31T04:43:57;10.90;99.90
10492;DHT22;5293;51.464;-2.566;2023-10-31T04:46:25;10.90;99.90
10492;DHT22;5293;51.464;-2.566;2023-10-31T04:48:52;10.90;99.90
10492;DHT22;5293;51.464;-2.566;2023-10-31T04:51:19;10.90;99.90
10492;DHT22;5293;51.464;-2.566;2023-10-31T04:53:44;10.90;99.90
10492;DHT22;5293;51.464;-2.566;2023-10-31T04:56:14;11.00;99.90
10492;DHT22;5293;51.464;-2.566;2023-10-31T04:58:41;11.00;99.90
10492;DHT22;5293;51.464;-2.566;2023-10-31T05:01:13;10.90;99.90
10492;DHT22;5293;51.464;-2.566;2023-10-31T05:03:39;10.90;99.90
10492;DHT22;5293;51.464;-2.566;2023-10-31T05:06:05;10.90;99.90
10492;DHT22;5293;51.464;-2.566;2023-10-31T05:08:32;10.90;99.90
10492;DHT22;5293;51.464;-2.566;2023-10-31T05:10:58;10.80;99.90
10492;DHT22;5293;51.464;-2.566;2023-10-31T05:13:24;10.80;99.90
10492;DHT22;5293;51.464;-2.566;2023-10-31T05:15:50;10.80;99.90
10492;DHT22;5293;51.464;-2.566;2023-10-31T05:18:17;10.70;99.90
10492;DHT22;5293;51.464;-2.566;2023-10-31T05:20:43;10.70;99.90
10492;DHT22;5293;51.464;-2.566;2023-10-31T05:23:09;10.70;99.90
10492;DHT22;5293;51.464;-2.566;2023-10-31T05:25:35;10.70;99.90
10492;DHT22;5293;51.464;-2.566;2023-10-31T05:28:01;10.70;99.90
10492;DHT22;5293;51.464;-2.566;2023-10-31T05:30:26;10.70;99.90
10492;DHT22;5293;51.464;-2.566;2023-10-31T05:32:52;10.70;99.90
10492;DHT22;5293;51.464;-2.566;2023-10-31T05:35:18;10.70;99.90
10492;DHT22;5293;51.464;-2.566;2023-10-31T05:37:46;10.70;99.90
10492;DHT22;5293;51.464;-2.566;2023-10-31T05:40:15;10.70;99.90
10492;DHT22;5293;51.464;-2.566;2023-10-31T05:42:41;10.70;99.90
10492;DHT22;5293;51.464;-2.566;2023-10-31T05:45:07;10.70;99.90
10492;DHT22;5293;51.464;-2.566;2023-10-31T05:47:33;10.70;99.90
10492;DHT22;5293;51.464;-2.566;2023-10-31T05:49:58;10.70;99.90
10492;DHT22;5293;51.464;-2.566;2023-10-31T05:52:28;10.70;99.90
10492;DHT22;5293;51.464;-2.566;2023-10-31T05:54:54;10.60;99.90
10492;DHT22;5293;51.464;-2.566;2023-10-31T05:57:20;10.60;99.90
10492;DHT22;5293;51.464;-2.566;2023-10-31T05:59:46;10.60;99.90
10492;DHT22;5293;51.464;-2.566;2023-10-31T06:02:13;10.70;99.90
10492;DHT22;5293;51.464;-2.566;2023-10-31T06:04:39;10.70;99.90
10492;DHT22;5293;51.464;-2.566;2023-10-31T06:07:05;10.70;99.90
10492;DHT22;5293;51.464;-2.566;2023-10-31T06:09:31;10.70;99.90
10492;DHT22;5293;51.464;-2.566;2023-10-31T06:11:59;10.70;99.90
10492;DHT22;5293;51.464;-2.566;2023-10-31T06:14:24;10.70;99.90
10492;DHT22;5293;51.464;-2.566;2023-10-31T06:16:51;10.70;99.90
10492;DHT22;5293;51.464;-2.566;2023-10-31T06:19:16;10.70;99.90
10492;DHT22;5293;51.464;-2.566;2023-10-31T06:21:42;10.70;99.90
10492;DHT22;5293;51.464;-2.566;2023-10-31T06:24:08;10.70;99.90
10492;DHT22;5293;51.464;-2.566;2023-10-31T06:26:34;10.70;99.90
10492;DHT22;5293;51.464;-2.566;2023-10-31T06:28:59;10.70;99.90
10492;DHT22;5293;51.464;-2.566;2023-10-31T06:31:25;10.80;99.90
10492;DHT22;5293;51.464;-2.566;2023-10-31T06:33:51;10.80;99.90
10492;DHT22;5293;51.464;-2.566;2023-10-31T06:36:16;10.80;99.90
10492;DHT22;5293;51.464;-2.566;2023-10-31T06:38:42;10.80;99.90
10492;DHT22;5293;51.464;-2.566;2023-10-31T06:41:08;10.80;99.90
10492;DHT22;5293;51.464;-2.566;2023-10-31T06:43:33;10.80;99.90
10492;DHT22;5293;51.464;-2.566;2023-10-31T06:46:00;10.80;99.90
10492;DHT22;5293;51.464;-2.566;2023-10-31T06:48:27;10.80;99.90
10492;DHT22;5293;51.464;-2.566;2023-10-31T06:50:53;10.70;99.90
10492;DHT22;5293;51.464;-2.566;2023-10-31T06:53:19;10.80;99.90
10492;DHT22;5293;51.464;-2.566;2023-10-31T06:55:44;10.70;99.90
10492;DHT22;5293;51.464;-2.566;2023-10-31T06:58:10;10.80;99.90
10492;DHT22;5293;51.464;-2.566;2023-10-31T07:00:35;10.80;99.90
10492;DHT22;5293;51.464;-2.566;2023-10-31T07:03:03;10.80;99.90
10492;DHT22;5293;51.464;-2.566;2023-10-31T07:05:32;10.90;99.90
10492;DHT22;5293;51.464;-2.566;2023-10-31T07:07:58;10.90;99.90
10492;DHT22;5293;51.464;-2.566;2023-10-31T07:10:23;10.90;99.90
10492;DHT22;5293;51.464;-2.566;2023-10-31T07:12:49;11.00;99.90
10492;DHT22;5293;51.464;-2.566;2023-10-31T07:15:14;10.90;99.90
10492;DHT22;5293;51.464;-2.566;2023-10-31T07:17:40;10.90;99.90
10492;DHT22;5293;51.464;-2.566;2023-10-31T07:20:06;11.00;99.90
10492;DHT22;5293;51.464;-2.566;2023-10-31T07:22:32;11.00;99.90
10492;DHT22;5293;51.464;-2.566;2023-10-31T07:24:59;11.10;99.90
10492;DHT22;5293;51.464;-2.566;2023-10-31T07:27:28;11.20;99.90
10492;DHT22;5293;51.464;-2.566;2023-10-31T07:29:54;11.30;99.90
10492;DHT22;5293;51.464;-2.566;2023-10-31T07:32:19;11.30;99.90
10492;DHT22;5293;51.464;-2.566;2023-10-31T07:34:45;11.40;99.90
10492;DHT22;5293;51.464;-2.566;2023-10-31T07:37:11;11.50;99.90
10492;DHT22;5293;51.464;-2.566;2023-10-31T07:39:36;11.50;99.90
10492;DHT22;5293;51.464;-2.566;2023-10-31T07:42:02;11.50;99.90
10492;DHT22;5293;51.464;-2.566;2023-10-31T07:44:28;11.60;99.90
10492;DHT22;5293;51.464;-2.566;2023-10-31T07:46:54;11.60;99.90
10492;DHT22;5293;51.464;-2.566;2023-10-31T07:49:19;11.60;99.90
10492;DHT22;5293;51.464;-2.566;2023-10-31T07:51:45;11.70;99.90
10492;DHT22;5293;51.464;-2.566;2023-10-31T07:54:13;11.70;99.90
10492;DHT22;5293;51.464;-2.566;2023-10-31T07:56:39;11.70;99.90
10492;DHT22;5293;51.464;-2.566;2023-10-31T07:59:06;11.80;99.90
10492;DHT22;5293;51.464;-2.566;2023-10-31T08:01:33;11.80;99.90
10492;DHT22;5293;51.464;-2.566;2023-10-31T08:03:59;11.90;99.90
10492;DHT22;5293;51.464;-2.566;2023-10-31T08:06:24;11.90;99.90
10492;DHT22;5293;51.464;-2.566;2023-10-31T08:08:50;11.90;99.90
10492;DHT22;5293;51.464;-2.566;2023-10-31T08:11:16;11.90;99.90
10492;DHT22;5293;51.464;-2.566;2023-10-31T08:13:41;11.90;99.90
10492;DHT22;5293;51.464;-2.566;2023-10-31T08:16:08;11.90;99.90
10492;DHT22;5293;51.464;-2.566;2023-10-31T08:18:34;12.00;99.90
10492;DHT22;5293;51.464;-2.566;2023-10-31T08:21:00;12.00;99.90
10492;DHT22;5293;51.464;-2.566;2023-10-31T08:23:26;12.00;99.90
10492;DHT22;5293;51.464;-2.566;2023-10-31T08:25:52;12.10;99.90
10492;DHT22;5293;51.464;-2.566;2023-10-31T08:28:17;12.10;99.90
10492;DHT22;5293;51.464;-2.566;2023-10-31T08:30:43;12.20;99.90
10492;DHT22;5293;51.464;-2.566;2023-10-31T08:33:09;12.20;99.90
10492;DHT22;5293;51.464;-2.566;2023-10-31T08:35:34;12.20;99.90
10492;DHT22;5293;51.464;-2.566;2023-10-31T08:38:00;12.20;99.90
10492;DHT22;5293;51.464;-2.566;2023-10-31T08:40:26;12.20;99.90
10492;DHT22;5293;51.464;-2.566;2023-10-31T08:42:51;12.20;99.90
10492;DHT22;5293;51.464;-2.566;2023-10-31T08:45:17;12.20;99.90
10492;DHT22;5293;51.464;-2.566;2023-10-31T08:47:43;12.20;99.90
10492;DHT22;5293;51.464;-2.566;2023-10-31T08:50:09;12.20;99.90
10492;DHT22;5293;51.464;-2.566;2023-10-31T08:52:37;12.10;99.90
10492;DHT22;5293;51.464;-2.566;2023-10-31T08:55:03;12.20;99.90
10492;DHT22;5293;51.464;-2.566;2023-10-31T08:57:29;12.20;99.90
10492;DHT22;5293;51.464;-2.566;2023-10-31T08:59:55;12.30;99.90
10492;DHT22;5293;51.464;-2.566;2023-10-31T09:02:21;12.30;99.90
10492;DHT22;5293;51.464;-2.566;2023-10-31T09:04:46;12.40;99.90
10492;DHT22;5293;51.464;-2.566;2023-10-31T09:07:12;12.50;99.90
10492;DHT22;5293;51.464;-2.566;2023-10-31T09:09:38;12.60;99.90
10492;DHT22;5293;51.464;-2.566;2023-10-31T09:12:03;12.80;99.90
10492;DHT22;5293;51.464;-2.566;2023-10-31T09:14:29;12.80;99.90
10492;DHT22;5293;51.464;-2.566;2023-10-31T09:16:55;13.00;99.90
10492;DHT22;5293;51.464;-2.566;2023-10-31T09:19:20;13.10;99.90
10492;DHT22;5293;51.464;-2.566;2023-10-31T09:21:46;13.20;99.90
10492;DHT22;5293;51.464;-2.566;2023-10-31T09:24:12;13.40;99.90
10492;DHT22;5293;51.464;-2.566;2023-10-31T09:26:42;13.50;99.90
10492;DHT22;5293;51.464;-2.566;2023-10-31T09:29:10;13.60;99.90
10492;DHT22;5293;51.464;-2.566;2023-10-31T09:31:35;13.60;99.90
10492;DHT22;5293;51.464;-2.566;2023-10-31T09:34:01;13.60;99.90
10492;DHT22;5293;51.464;-2.566;2023-10-31T09:36:31;13.70;99.90
10492;DHT22;5293;51.464;-2.566;2023-10-31T09:38:57;13.70;99.90
10492;DHT22;5293;51.464;-2.566;2023-10-31T09:41:23;13.60;99.90
10492;DHT22;5293;51.464;-2.566;2023-10-31T09:43:49;13.60;99.90
10492;DHT22;5293;51.464;-2.566;2023-10-31T09:46:16;13.60;99.90
10492;DHT22;5293;51.464;-2.566;2023-10-31T09:48:43;13.50;99.90
10492;DHT22;5293;51.464;-2.566;2023-10-31T09:51:12;13.40;99.90
10492;DHT22;5293;51.464;-2.566;2023-10-31T09:53:38;13.60;99.90
10492;DHT22;5293;51.464;-2.566;2023-10-31T09:56:05;13.60;99.90
10492;DHT22;5293;51.464;-2.566;2023-10-31T09:58:31;13.80;99.90
10492;DHT22;5293;51.464;-2.566;2023-10-31T10:00:57;14.00;99.90
10492;DHT22;5293;51.464;-2.566;2023-10-31T10:03:23;14.10;99.90
10492;DHT22;5293;51.464;-2.566;2023-10-31T10:05:49;14.10;99.90
10492;DHT22;5293;51.464;-2.566;2023-10-31T10:08:15;14.30;99.90
10492;DHT22;5293;51.464;-2.566;2023-10-31T10:10:41;14.50;99.90
10492;DHT22;5293;51.464;-2.566;2023-10-31T10:13:07;14.60;99.90
10492;DHT22;5293;51.464;-2.566;2023-10-31T10:15:47;14.80;99.90
10492;DHT22;5293;51.464;-2.566;2023-10-31T10:18:26;15.00;99.90
10492;DHT22;5293;51.464;-2.566;2023-10-31T10:20:59;15.00;99.90
10492;DHT22;5293;51.464;-2.566;2023-10-31T10:23:25;15.00;99.90
10492;DHT22;5293;51.464;-2.566;2023-10-31T10:25:52;15.00;99.90
10492;DHT22;5293;51.464;-2.566;2023-10-31T10:28:18;15.10;99.90
10492;DHT22;5293;51.464;-2.566;2023-10-31T10:30:47;15.30;99.90
10492;DHT22;5293;51.464;-2.566;2023-10-31T10:33:14;15.10;99.90
10492;DHT22;5293;51.464;-2.566;2023-10-31T10:35:39;15.10;99.90
10492;DHT22;5293;51.464;-2.566;2023-10-31T10:38:13;15.10;99.90
10492;DHT22;5293;51.464;-2.566;2023-10-31T10:40:47;15.10;99.90
10492;DHT22;5293;51.464;-2.566;2023-10-31T10:43:23;15.00;99.90
10492;DHT22;5293;51.464;-2.566;2023-10-31T10:45:59;15.10;99.90
10492;DHT22;5293;51.464;-2.566;2023-10-31T10:48:26;15.30;99.90
10492;DHT22;5293;51.464;-2.566;2023-10-31T10:51:15;15.30;99.90
10492;DHT22;5293;51.464;-2.566;2023-10-31T10:53:57;15.30;99.90
10492;DHT22;5293;51.464;-2.566;2023-10-31T10:56:50;15.40;99.90
10492;DHT22;5293;51.464;-2.566;2023-10-31T10:59:17;15.40;99.90
10492;DHT22;5293;51.464;-2.566;2023-10-31T11:01:46;15.70;99.90
10492;DHT22;5293;51.464;-2.566;2023-10-31T11:04:14;15.70;99.90
10492;DHT22;5293;51.464;-2.566;2023-10-31T11:06:41;15.70;99.90
10492;DHT22;5293;51.464;-2.566;2023-10-31T11:09:09;15.70;99.90
10492;DHT22;5293;51.464;-2.566;2023-10-31T11:11:37;15.60;99.90
10492;DHT22;5293;51.464;-2.566;2023-10-31T11:14:03;15.70;99.90
10492;DHT22;5293;51.464;-2.566;2023-10-31T11:16:37;15.70;99.90
10492;DHT22;5293;51.464;-2.566;2023-10-31T11:19:04;16.00;99.90
10492;DHT22;5293;51.464;-2.566;2023-10-31T11:21:31;16.00;99.90
10492;DHT22;5293;51.464;-2.566;2023-10-31T11:24:00;16.00;99.90
10492;DHT22;5293;51.464;-2.566;2023-10-31T11:26:28;16.00;99.90
10492;DHT22;5293;51.464;-2.566;2023-10-31T11:29:05;15.90;99.90
10492;DHT22;5293;51.464;-2.566;2023-10-31T11:31:31;15.90;99.90
10492;DHT22;5293;51.464;-2.566;2023-10-31T11:34:01;15.80;99.90
10492;DHT22;5293;51.464;-2.566;2023-10-31T11:36:30;15.70;99.90
10492;DHT22;5293;51.464;-2.566;2023-10-31T11:39:21;15.60;99.90
10492;DHT22;5293;51.464;-2.566;2023-10-31T11:41:55;15.50;99.90
10492;DHT22;5293;51.464;-2.566;2023-10-31T11:44:26;15.40;99.90
10492;DHT22;5293;51.464;-2.566;2023-10-31T11:46:52;15.30;99.90
10492;DHT22;5293;51.464;-2.566;2023-10-31T11:49:47;15.30;99.90
10492;DHT22;5293;51.464;-2.566;2023-10-31T11:52:17;15.40;99.90
10492;DHT22;5293;51.464;-2.566;2023-10-31T11:54:43;15.30;99.90
10492;DHT22;5293;51.464;-2.566;2023-10-31T11:57:09;15.20;99.90
10492;DHT22;5293;51.464;-2.566;2023-10-31T11:59:38;15.10;99.90
10492;DHT22;5293;51.464;-2.566;2023-10-31T12:02:16;15.00;99.90
10492;DHT22;5293;51.464;-2.566;2023-10-31T12:04:43;14.90;99.90
10492;DHT22;5293;51.464;-2.566;2023-10-31T12:07:10;14.70;99.90
10492;DHT22;5293;51.464;-2.566;2023-10-31T12:09:48;14.70;99.90
10492;DHT22;5293;51.464;-2.566;2023-10-31T12:12:14;14.70;99.90
10492;DHT22;5293;51.464;-2.566;2023-10-31T12:14:40;14.80;99.90
10492;DHT22;5293;51.464;-2.566;2023-10-31T12:17:07;15.00;99.90
10492;DHT22;5293;51.464;-2.566;2023-10-31T12:19:33;15.00;99.90
10492;DHT22;5293;51.464;-2.566;2023-10-31T12:21:58;15.10;99.90
10492;DHT22;5293;51.464;-2.566;2023-10-31T12:24:24;15.20;99.90
10492;DHT22;5293;51.464;-2.566;2023-10-31T12:26:50;15.20;99.90
10492;DHT22;5293;51.464;-2.566;2023-10-31T12:29:18;15.10;99.90
10492;DHT22;5293;51.464;-2.566;2023-10-31T12:31:54;14.90;99.90
10492;DHT22;5293;51.464;-2.566;2023-10-31T12:34:21;14.80;99.90
10492;DHT22;5293;51.464;-2.566;2023-10-31T12:36:50;14.90;99.90
10492;DHT22;5293;51.464;-2.566;2023-10-31T12:39:17;14.80;99.90
10492;DHT22;5293;51.464;-2.566;2023-10-31T12:41:43;14.90;99.90
10492;DHT22;5293;51.464;-2.566;2023-10-31T12:44:09;14.90;99.90
10492;DHT22;5293;51.464;-2.566;2023-10-31T12:46:41;15.00;99.90
10492;DHT22;5293;51.464;-2.566;2023-10-31T12:49:18;15.20;99.90
10492;DHT22;5293;51.464;-2.566;2023-10-31T12:52:00;15.30;99.90
10492;DHT22;5293;51.464;-2.566;2023-10-31T12:54:31;15.30;99.90
10492;DHT22;5293;51.464;-2.566;2023-10-31T12:57:07;15.30;99.90
10492;DHT22;5293;51.464;-2.566;2023-10-31T12:59:34;15.20;99.90
10492;DHT22;5293;51.464;-2.566;2023-10-31T13:02:02;15.20;99.90
10492;DHT22;5293;51.464;-2.566;2023-10-31T13:04:30;15.10;99.90
10492;DHT22;5293;51.464;-2.566;2023-10-31T13:07:00;15.10;99.90
10492;DHT22;5293;51.464;-2.566;2023-10-31T13:09:33;15.20;99.90
10492;DHT22;5293;51.464;-2.566;2023-10-31T13:12:04;15.10;99.90
10492;DHT22;5293;51.464;-2.566;2023-10-31T13:14:30;15.00;99.90
10492;DHT22;5293;51.464;-2.566;2023-10-31T13:16:56;14.80;99.90
10492;DHT22;5293;51.464;-2.566;2023-10-31T13:19:21;14.80;99.90
10492;DHT22;5293;51.464;-2.566;2023-10-31T13:21:48;14.70;99.90
10492;DHT22;5293;51.464;-2.566;2023-10-31T13:24:13;14.60;99.90
10492;DHT22;5293;51.464;-2.566;2023-10-31T13:26:39;14.60;99.90
10492;DHT22;5293;51.464;-2.566;2023-10-31T13:29:05;14.60;99.90
10492;DHT22;5293;51.464;-2.566;2023-10-31T13:31:30;14.60;99.90
10492;DHT22;5293;51.464;-2.566;2023-10-31T13:33:56;14.50;99.90
10492;DHT22;5293;51.464;-2.566;2023-10-31T13:36:22;14.60;99.90
10492;DHT22;5293;51.464;-2.566;2023-10-31T13:38:47;14.50;99.90
10492;DHT22;5293;51.464;-2.566;2023-10-31T13:41:14;14.50;99.90
10492;DHT22;5293;51.464;-2.566;2023-10-31T13:43:40;14.50;99.90
10492;DHT22;5293;51.464;-2.566;2023-10-31T13:46:05;14.50;99.90
10492;DHT22;5293;51.464;-2.566;2023-10-31T13:48:31;14.60;99.90
10492;DHT22;5293;51.464;-2.566;2023-10-31T13:50:57;14.70;99.90
10492;DHT22;5293;51.464;-2.566;2023-10-31T13:53:23;14.70;99.90
10492;DHT22;5293;51.464;-2.566;2023-10-31T13:55:49;14.70;99.90
10492;DHT22;5293;51.464;-2.566;2023-10-31T13:58:15;14.80;99.90
10492;DHT22;5293;51.464;-2.566;2023-10-31T14:00:41;14.80;99.90
10492;DHT22;5293;51.464;-2.566;2023-10-31T14:03:06;14.90;99.90
10492;DHT22;5293;51.464;-2.566;2023-10-31T14:05:32;15.00;99.90
10492;DHT22;5293;51.464;-2.566;2023-10-31T14:07:58;15.00;99.90
10492;DHT22;5293;51.464;-2.566;2023-10-31T14:10:24;14.90;99.90
10492;DHT22;5293;51.464;-2.566;2023-10-31T14:12:50;14.90;99.90
10492;DHT22;5293;51.464;-2.566;2023-10-31T14:15:17;14.80;99.90
10492;DHT22;5293;51.464;-2.566;2023-10-31T14:17:43;14.70;99.90
10492;DHT22;5293;51.464;-2.566;2023-10-31T14:20:10;14.80;99.90
10492;DHT22;5293;51.464;-2.566;2023-10-31T14:22:36;14.80;99.90
10492;DHT22;5293;51.464;-2.566;2023-10-31T14:25:01;14.90;99.90
10492;DHT22;5293;51.464;-2.566;2023-10-31T14:27:29;14.80;99.90
10492;DHT22;5293;51.464;-2.566;2023-10-31T14:29:55;14.80;99.90
10492;DHT22;5293;51.464;-2.566;2023-10-31T14:32:21;14.70;99.90
10492;DHT22;5293;51.464;-2.566;2023-10-31T14:34:47;14.80;99.90
10492;DHT22;5293;51.464;-2.566;2023-10-31T14:37:12;14.80;99.90
10492;DHT22;5293;51.464;-2.566;2023-10-31T14:39:38;14.80;99.90
10492;DHT22;5293;51.464;-2.566;2023-10-31T14:42:04;14.70;99.90
10492;DHT22;5293;51.464;-2.566;2023-10-31T14:44:29;14.70;99.90
10492;DHT22;5293;51.464;-2.566;2023-10-31T14:46:55;14.70;99.90
10492;DHT22;5293;51.464;-2.566;2023-10-31T14:49:21;14.70;99.90
10492;DHT22;5293;51.464;-2.566;2023-10-31T14:51:47;14.70;99.90
10492;DHT22;5293;51.464;-2.566;2023-10-31T14:54:12;14.60;99.90
10492;DHT22;5293;51.464;-2.566;2023-10-31T14:56:38;14.70;99.90
10492;DHT22;5293;51.464;-2.566;2023-10-31T14:59:05;14.70;99.90
10492;DHT22;5293;51.464;-2.566;2023-10-31T15:01:30;14.80;99.90
10492;DHT22;5293;51.464;-2.566;2023-10-31T15:03:56;14.80;99.90
10492;DHT22;5293;51.464;-2.566;2023-10-31T15:06:22;14.80;99.90
10492;DHT22;5293;51.464;-2.566;2023-10-31T15:08:48;14.80;99.90
10492;DHT22;5293;51.464;-2.566;2023-10-31T15:11:14;14.90;99.90
10492;DHT22;5293;51.464;-2.566;2023-10-31T15:13:41;14.90;99.90
10492;DHT22;5293;51.464;-2.566;2023-10-31T15:16:07;14.80;99.90
10492;DHT22;5293;51.464;-2.566;2023-10-31T15:18:32;14.90;99.90
10492;DHT22;5293;51.464;-2.566;2023-10-31T15:20:58;14.90;99.90
10492;DHT22;5293;51.464;-2.566;2023-10-31T15:23:26;14.90;99.90
10492;DHT22;5293;51.464;-2.566;2023-10-31T15:25:55;14.90;99.90
10492;DHT22;5293;51.464;-2.566;2023-10-31T15:28:22;14.90;99.90